sensor_id;sensor_type;location;lat;lon;timestamp;P1;durP1;ratioP1;P2;durP2;ratioP2
34296;SDS011;20564;42.902;25.336;2023-03-01T00:01:30;6.57;;;2.88;;
34296;SDS011;20564;42.902;25.336;2023-03-01T00:04:00;6.63;;;2.40;;
34296;SDS011;20564;42.902;25.336;2023-03-01T00:06:28;7.53;;;2.38;;
34296;SDS011;20564;42.902;25.336;2023-03-01T00:08:56;3.65;;;1.27;;
34296;SDS011;20564;42.902;25.336;2023-03-01T00:11:24;6.70;;;1.65;;
34296;SDS011;20564;42.902;25.336;2023-03-01T00:13:55;7.50;;;2.67;;
34296;SDS011;20564;42.902;25.336;2023-03-01T00:16:28;5.70;;;2.45;;
34296;SDS011;20564;42.902;25.336;2023-03-01T00:19:30;7.35;;;1.77;;
34296;SDS011;20564;42.902;25.336;2023-03-01T00:22:09;4.00;;;1.70;;
34296;SDS011;20564;42.902;25.336;2023-03-01T00:27:33;4.90;;;1.38;;
34296;SDS011;20564;42.902;25.336;2023-03-01T00:30:01;4.93;;;1.42;;
34296;SDS011;20564;42.902;25.336;2023-03-01T00:32:29;5.80;;;1.63;;
34296;SDS011;20564;42.902;25.336;2023-03-01T00:35:10;5.28;;;1.75;;
34296;SDS011;20564;42.902;25.336;2023-03-01T00:37:38;5.97;;;1.77;;
34296;SDS011;20564;42.902;25.336;2023-03-01T00:40:09;5.05;;;2.03;;
34296;SDS011;20564;42.902;25.336;2023-03-01T00:42:43;5.95;;;1.42;;
34296;SDS011;20564;42.902;25.336;2023-03-01T00:45:16;4.32;;;1.20;;
34296;SDS011;20564;42.902;25.336;2023-03-01T00:48:00;4.32;;;1.45;;
34296;SDS011;20564;42.902;25.336;2023-03-01T00:50:27;2.67;;;1.40;;
34296;SDS011;20564;42.902;25.336;2023-03-01T00:52:56;3.55;;;1.38;;
34296;SDS011;20564;42.902;25.336;2023-03-01T00:55:28;3.90;;;1.00;;
34296;SDS011;20564;42.902;25.336;2023-03-01T00:57:58;2.92;;;1.27;;
34296;SDS011;20564;42.902;25.336;2023-03-01T01:00:37;2.60;;;0.88;;
34296;SDS011;20564;42.902;25.336;2023-03-01T01:03:40;2.85;;;0.70;;
34296;SDS011;20564;42.902;25.336;2023-03-01T01:06:12;2.85;;;1.00;;
34296;SDS011;20564;42.902;25.336;2023-03-01T01:08:40;2.75;;;0.70;;
34296;SDS011;20564;42.902;25.336;2023-03-01T01:11:11;1.95;;;0.68;;
34296;SDS011;20564;42.902;25.336;2023-03-01T01:13:54;4.80;;;1.15;;
34296;SDS011;20564;42.902;25.336;2023-03-01T01:16:37;2.63;;;0.70;;
34296;SDS011;20564;42.902;25.336;2023-03-01T01:19:06;5.22;;;1.20;;
34296;SDS011;20564;42.902;25.336;2023-03-01T01:21:47;1.77;;;0.88;;
34296;SDS011;20564;42.902;25.336;2023-03-01T01:26:43;3.22;;;1.13;;
34296;SDS011;20564;42.902;25.336;2023-03-01T01:29:26;11.73;;;2.85;;
34296;SDS011;20564;42.902;25.336;2023-03-01T01:31:56;4.90;;;1.45;;
34296;SDS011;20564;42.902;25.336;2023-03-01T01:34:24;1.83;;;1.08;;
34296;SDS011;20564;42.902;25.336;2023-03-01T01:36:52;6.00;;;2.08;;
34296;SDS011;20564;42.902;25.336;2023-03-01T01:39:23;2.72;;;1.02;;
34296;SDS011;20564;42.902;25.336;2023-03-01T01:41:51;1.88;;;0.90;;
34296;SDS011;20564;42.902;25.336;2023-03-01T01:44:23;2.25;;;0.88;;
34296;SDS011;20564;42.902;25.336;2023-03-01T01:47:33;1.30;;;0.50;;
34296;SDS011;20564;42.902;25.336;2023-03-01T01:50:08;1.05;;;0.68;;
34296;SDS011;20564;42.902;25.336;2023-03-01T01:56:08;2.35;;;0.80;;
34296;SDS011;20564;42.902;25.336;2023-03-01T01:58:38;3.13;;;1.00;;
34296;SDS011;20564;42.902;25.336;2023-03-01T02:01:09;4.82;;;0.95;;
34296;SDS011;20564;42.902;25.336;2023-03-01T02:03:39;2.60;;;0.77;;
34296;SDS011;20564;42.902;25.336;2023-03-01T02:06:17;1.67;;;0.68;;
34296;SDS011;20564;42.902;25.336;2023-03-01T02:08:57;3.70;;;0.85;;
34296;SDS011;20564;42.902;25.336;2023-03-01T02:11:29;2.90;;;0.85;;
34296;SDS011;20564;42.902;25.336;2023-03-01T02:13:58;0.82;;;0.25;;
34296;SDS011;20564;42.902;25.336;2023-03-01T02:16:26;2.58;;;0.75;;
34296;SDS011;20564;42.902;25.336;2023-03-01T02:18:53;3.00;;;1.23;;
34296;SDS011;20564;42.902;25.336;2023-03-01T02:24:34;2.28;;;0.50;;
34296;SDS011;20564;42.902;25.336;2023-03-01T02:27:08;3.50;;;1.02;;
34296;SDS011;20564;42.902;25.336;2023-03-01T02:32:30;1.17;;;0.50;;
34296;SDS011;20564;42.902;25.336;2023-03-01T02:34:58;0.57;;;0.32;;
34296;SDS011;20564;42.902;25.336;2023-03-01T02:37:28;1.73;;;0.50;;
34296;SDS011;20564;42.902;25.336;2023-03-01T02:40:06;1.55;;;0.60;;
34296;SDS011;20564;42.902;25.336;2023-03-01T02:42:43;1.52;;;0.70;;
34296;SDS011;20564;42.902;25.336;2023-03-01T02:45:21;1.80;;;0.60;;
34296;SDS011;20564;42.902;25.336;2023-03-01T02:47:49;2.42;;;0.70;;
34296;SDS011;20564;42.902;25.336;2023-03-01T02:50:26;2.53;;;0.68;;
34296;SDS011;20564;42.902;25.336;2023-03-01T02:53:41;4.10;;;1.15;;
34296;SDS011;20564;42.902;25.336;2023-03-01T02:56:20;2.08;;;0.70;;
34296;SDS011;20564;42.902;25.336;2023-03-01T02:58:48;4.13;;;1.30;;
34296;SDS011;20564;42.902;25.336;2023-03-01T03:01:19;3.50;;;1.40;;
34296;SDS011;20564;42.902;25.336;2023-03-01T03:03:47;3.90;;;1.05;;
34296;SDS011;20564;42.902;25.336;2023-03-01T03:06:37;2.90;;;0.93;;
34296;SDS011;20564;42.902;25.336;2023-03-01T03:09:04;5.82;;;1.63;;
34296;SDS011;20564;42.902;25.336;2023-03-01T03:11:35;1.95;;;0.93;;
34296;SDS011;20564;42.902;25.336;2023-03-01T03:14:07;2.45;;;1.08;;
34296;SDS011;20564;42.902;25.336;2023-03-01T03:17:03;3.17;;;1.20;;
34296;SDS011;20564;42.902;25.336;2023-03-01T03:19:37;3.00;;;1.50;;
34296;SDS011;20564;42.902;25.336;2023-03-01T03:22:07;3.55;;;1.33;;
34296;SDS011;20564;42.902;25.336;2023-03-01T03:25:02;2.22;;;0.88;;
34296;SDS011;20564;42.902;25.336;2023-03-01T03:27:47;2.47;;;0.80;;
34296;SDS011;20564;42.902;25.336;2023-03-01T03:30:18;2.92;;;1.17;;
34296;SDS011;20564;42.902;25.336;2023-03-01T03:36:24;1.95;;;0.73;;
34296;SDS011;20564;42.902;25.336;2023-03-01T03:39:01;2.65;;;1.30;;
34296;SDS011;20564;42.902;25.336;2023-03-01T03:41:29;3.35;;;0.80;;
34296;SDS011;20564;42.902;25.336;2023-03-01T03:44:00;2.45;;;0.80;;
34296;SDS011;20564;42.902;25.336;2023-03-01T03:49:14;5.45;;;1.40;;
34296;SDS011;20564;42.902;25.336;2023-03-01T03:51:50;2.63;;;1.23;;
34296;SDS011;20564;42.902;25.336;2023-03-01T03:54:17;3.40;;;0.98;;
34296;SDS011;20564;42.902;25.336;2023-03-01T03:56:44;2.05;;;0.77;;
34296;SDS011;20564;42.902;25.336;2023-03-01T03:59:30;3.80;;;1.52;;
34296;SDS011;20564;42.902;25.336;2023-03-01T04:01:58;3.53;;;1.50;;
34296;SDS011;20564;42.902;25.336;2023-03-01T04:04:26;3.95;;;2.00;;
34296;SDS011;20564;42.902;25.336;2023-03-01T04:06:56;3.95;;;1.75;;
34296;SDS011;20564;42.902;25.336;2023-03-01T04:09:23;4.82;;;1.70;;
34296;SDS011;20564;42.902;25.336;2023-03-01T04:12:24;5.40;;;1.45;;
34296;SDS011;20564;42.902;25.336;2023-03-01T04:15:09;3.08;;;1.13;;
34296;SDS011;20564;42.902;25.336;2023-03-01T04:17:45;2.58;;;1.00;;
34296;SDS011;20564;42.902;25.336;2023-03-01T04:20:45;3.33;;;0.60;;
34296;SDS011;20564;42.902;25.336;2023-03-01T04:23:40;3.03;;;1.10;;
34296;SDS011;20564;42.902;25.336;2023-03-01T04:26:08;4.05;;;0.98;;
34296;SDS011;20564;42.902;25.336;2023-03-01T04:29:08;2.85;;;1.40;;
34296;SDS011;20564;42.902;25.336;2023-03-01T04:31:38;4.55;;;1.13;;
34296;SDS011;20564;42.902;25.336;2023-03-01T04:34:18;3.15;;;1.45;;
34296;SDS011;20564;42.902;25.336;2023-03-01T04:36:48;2.25;;;0.93;;
34296;SDS011;20564;42.902;25.336;2023-03-01T04:39:26;1.65;;;0.82;;
34296;SDS011;20564;42.902;25.336;2023-03-01T04:42:39;1.98;;;0.90;;
34296;SDS011;20564;42.902;25.336;2023-03-01T04:44:59;2.35;;;0.98;;
34296;SDS011;20564;42.902;25.336;2023-03-01T04:50:45;2.95;;;1.17;;
34296;SDS011;20564;42.902;25.336;2023-03-01T04:53:14;2.13;;;0.70;;
34296;SDS011;20564;42.902;25.336;2023-03-01T04:55:56;2.67;;;0.93;;
34296;SDS011;20564;42.902;25.336;2023-03-01T04:58:23;3.15;;;0.82;;
34296;SDS011;20564;42.902;25.336;2023-03-01T05:00:54;4.38;;;1.17;;
34296;SDS011;20564;42.902;25.336;2023-03-01T05:03:32;4.55;;;1.02;;
34296;SDS011;20564;42.902;25.336;2023-03-01T05:06:09;2.58;;;1.10;;
34296;SDS011;20564;42.902;25.336;2023-03-01T05:08:40;5.80;;;1.33;;
34296;SDS011;20564;42.902;25.336;2023-03-01T05:11:12;4.53;;;1.10;;
34296;SDS011;20564;42.902;25.336;2023-03-01T05:13:48;2.58;;;1.15;;
34296;SDS011;20564;42.902;25.336;2023-03-01T05:16:21;3.38;;;1.08;;
34296;SDS011;20564;42.902;25.336;2023-03-01T05:19:19;5.05;;;1.77;;
34296;SDS011;20564;42.902;25.336;2023-03-01T05:21:52;4.55;;;1.38;;
34296;SDS011;20564;42.902;25.336;2023-03-01T05:24:32;2.28;;;0.77;;
34296;SDS011;20564;42.902;25.336;2023-03-01T05:27:23;4.43;;;1.67;;
34296;SDS011;20564;42.902;25.336;2023-03-01T05:30:00;4.70;;;1.40;;
34296;SDS011;20564;42.902;25.336;2023-03-01T05:32:47;3.63;;;1.00;;
34296;SDS011;20564;42.902;25.336;2023-03-01T05:35:16;1.58;;;1.10;;
34296;SDS011;20564;42.902;25.336;2023-03-01T05:37:47;4.18;;;1.05;;
34296;SDS011;20564;42.902;25.336;2023-03-01T05:40:33;3.90;;;1.27;;
34296;SDS011;20564;42.902;25.336;2023-03-01T05:43:14;4.20;;;1.20;;
34296;SDS011;20564;42.902;25.336;2023-03-01T05:46:12;5.35;;;1.90;;
34296;SDS011;20564;42.902;25.336;2023-03-01T05:48:43;5.13;;;1.20;;
34296;SDS011;20564;42.902;25.336;2023-03-01T05:51:23;4.68;;;1.15;;
34296;SDS011;20564;42.902;25.336;2023-03-01T05:53:53;3.80;;;1.58;;
34296;SDS011;20564;42.902;25.336;2023-03-01T05:56:23;2.90;;;1.30;;
34296;SDS011;20564;42.902;25.336;2023-03-01T05:58:57;3.42;;;1.63;;
34296;SDS011;20564;42.902;25.336;2023-03-01T06:01:32;3.72;;;1.35;;
34296;SDS011;20564;42.902;25.336;2023-03-01T06:04:01;3.17;;;1.30;;
34296;SDS011;20564;42.902;25.336;2023-03-01T06:06:34;4.18;;;1.70;;
34296;SDS011;20564;42.902;25.336;2023-03-01T06:09:14;3.00;;;1.25;;
34296;SDS011;20564;42.902;25.336;2023-03-01T06:11:43;4.05;;;1.58;;
34296;SDS011;20564;42.902;25.336;2023-03-01T06:14:10;3.30;;;1.23;;
34296;SDS011;20564;42.902;25.336;2023-03-01T06:19:41;5.45;;;1.30;;
34296;SDS011;20564;42.902;25.336;2023-03-01T06:22:08;3.45;;;0.85;;
34296;SDS011;20564;42.902;25.336;2023-03-01T06:24:36;3.00;;;1.63;;
34296;SDS011;20564;42.902;25.336;2023-03-01T06:27:09;3.35;;;1.52;;
34296;SDS011;20564;42.902;25.336;2023-03-01T06:32:59;3.47;;;1.27;;
34296;SDS011;20564;42.902;25.336;2023-03-01T06:36:12;7.57;;;1.25;;
34296;SDS011;20564;42.902;25.336;2023-03-01T06:38:39;3.80;;;1.20;;
34296;SDS011;20564;42.902;25.336;2023-03-01T06:41:07;14.95;;;2.15;;
34296;SDS011;20564;42.902;25.336;2023-03-01T06:43:37;5.60;;;2.28;;
34296;SDS011;20564;42.902;25.336;2023-03-01T06:46:13;19.65;;;1.65;;
34296;SDS011;20564;42.902;25.336;2023-03-01T06:48:45;4.22;;;1.65;;
34296;SDS011;20564;42.902;25.336;2023-03-01T06:51:18;5.35;;;1.90;;
34296;SDS011;20564;42.902;25.336;2023-03-01T06:53:46;4.20;;;1.47;;
34296;SDS011;20564;42.902;25.336;2023-03-01T06:56:32;3.25;;;1.00;;
34296;SDS011;20564;42.902;25.336;2023-03-01T06:59:09;5.32;;;1.52;;
34296;SDS011;20564;42.902;25.336;2023-03-01T07:04:12;3.95;;;1.30;;
34296;SDS011;20564;42.902;25.336;2023-03-01T07:06:55;5.15;;;2.17;;
34296;SDS011;20564;42.902;25.336;2023-03-01T07:10:10;6.25;;;2.67;;
34296;SDS011;20564;42.902;25.336;2023-03-01T07:12:38;6.38;;;2.28;;
34296;SDS011;20564;42.902;25.336;2023-03-01T07:15:05;7.90;;;2.90;;
34296;SDS011;20564;42.902;25.336;2023-03-01T07:17:32;8.23;;;3.10;;
34296;SDS011;20564;42.902;25.336;2023-03-01T07:19:59;10.68;;;3.28;;
34296;SDS011;20564;42.902;25.336;2023-03-01T07:22:26;11.55;;;3.75;;
34296;SDS011;20564;42.902;25.336;2023-03-01T07:24:53;9.45;;;1.90;;
34296;SDS011;20564;42.902;25.336;2023-03-01T07:27:20;7.75;;;2.83;;
34296;SDS011;20564;42.902;25.336;2023-03-01T07:29:47;5.78;;;1.90;;
34296;SDS011;20564;42.902;25.336;2023-03-01T07:32:13;8.00;;;2.92;;
34296;SDS011;20564;42.902;25.336;2023-03-01T07:34:40;6.20;;;1.77;;
34296;SDS011;20564;42.902;25.336;2023-03-01T07:37:10;4.78;;;1.83;;
34296;SDS011;20564;42.902;25.336;2023-03-01T07:39:37;3.72;;;1.70;;
34296;SDS011;20564;42.902;25.336;2023-03-01T07:42:04;3.85;;;1.20;;
34296;SDS011;20564;42.902;25.336;2023-03-01T07:44:31;4.90;;;1.90;;
34296;SDS011;20564;42.902;25.336;2023-03-01T07:46:58;2.67;;;1.13;;
34296;SDS011;20564;42.902;25.336;2023-03-01T07:49:25;3.75;;;1.90;;
34296;SDS011;20564;42.902;25.336;2023-03-01T07:51:55;5.65;;;1.98;;
34296;SDS011;20564;42.902;25.336;2023-03-01T07:54:22;3.80;;;1.85;;
34296;SDS011;20564;42.902;25.336;2023-03-01T07:56:49;3.97;;;1.35;;
34296;SDS011;20564;42.902;25.336;2023-03-01T07:59:16;4.03;;;1.52;;
34296;SDS011;20564;42.902;25.336;2023-03-01T08:01:46;4.68;;;1.55;;
34296;SDS011;20564;42.902;25.336;2023-03-01T08:04:13;4.60;;;1.02;;
34296;SDS011;20564;42.902;25.336;2023-03-01T08:06:40;4.28;;;1.52;;
34296;SDS011;20564;42.902;25.336;2023-03-01T08:09:07;5.85;;;1.35;;
34296;SDS011;20564;42.902;25.336;2023-03-01T08:11:35;4.18;;;1.05;;
34296;SDS011;20564;42.902;25.336;2023-03-01T08:14:01;4.60;;;1.05;;
34296;SDS011;20564;42.902;25.336;2023-03-01T08:16:40;2.85;;;1.20;;
34296;SDS011;20564;42.902;25.336;2023-03-01T08:19:08;3.80;;;1.30;;
34296;SDS011;20564;42.902;25.336;2023-03-01T08:21:37;4.53;;;1.00;;
34296;SDS011;20564;42.902;25.336;2023-03-01T08:24:05;2.97;;;1.02;;
34296;SDS011;20564;42.902;25.336;2023-03-01T08:26:33;3.28;;;1.10;;
34296;SDS011;20564;42.902;25.336;2023-03-01T08:29:00;2.67;;;1.17;;
34296;SDS011;20564;42.902;25.336;2023-03-01T08:31:30;4.07;;;1.13;;
34296;SDS011;20564;42.902;25.336;2023-03-01T08:34:00;5.60;;;1.80;;
34296;SDS011;20564;42.902;25.336;2023-03-01T08:36:41;6.07;;;1.88;;
34296;SDS011;20564;42.902;25.336;2023-03-01T08:39:12;3.70;;;1.25;;
34296;SDS011;20564;42.902;25.336;2023-03-01T08:41:41;3.33;;;1.27;;
34296;SDS011;20564;42.902;25.336;2023-03-01T08:44:09;5.13;;;1.65;;
34296;SDS011;20564;42.902;25.336;2023-03-01T08:46:38;7.07;;;2.63;;
34296;SDS011;20564;42.902;25.336;2023-03-01T08:49:08;4.32;;;1.00;;
34296;SDS011;20564;42.902;25.336;2023-03-01T08:51:38;5.15;;;1.98;;
34296;SDS011;20564;42.902;25.336;2023-03-01T08:54:14;7.60;;;2.00;;
34296;SDS011;20564;42.902;25.336;2023-03-01T08:57:06;6.82;;;2.22;;
34296;SDS011;20564;42.902;25.336;2023-03-01T08:59:53;5.57;;;1.90;;
34296;SDS011;20564;42.902;25.336;2023-03-01T09:02:22;4.47;;;1.55;;
34296;SDS011;20564;42.902;25.336;2023-03-01T09:04:52;3.73;;;1.70;;
34296;SDS011;20564;42.902;25.336;2023-03-01T09:07:46;6.13;;;1.40;;
34296;SDS011;20564;42.902;25.336;2023-03-01T09:10:32;2.05;;;1.23;;
34296;SDS011;20564;42.902;25.336;2023-03-01T09:13:09;4.20;;;1.17;;
34296;SDS011;20564;42.902;25.336;2023-03-01T09:15:39;4.72;;;1.13;;
34296;SDS011;20564;42.902;25.336;2023-03-01T09:18:11;3.42;;;1.33;;
34296;SDS011;20564;42.902;25.336;2023-03-01T09:20:39;6.38;;;1.42;;
34296;SDS011;20564;42.902;25.336;2023-03-01T09:23:12;4.38;;;1.55;;
34296;SDS011;20564;42.902;25.336;2023-03-01T09:25:45;4.45;;;1.42;;
34296;SDS011;20564;42.902;25.336;2023-03-01T09:28:12;10.30;;;1.63;;
34296;SDS011;20564;42.902;25.336;2023-03-01T09:30:57;5.07;;;1.63;;
34296;SDS011;20564;42.902;25.336;2023-03-01T09:33:27;2.45;;;1.05;;
34296;SDS011;20564;42.902;25.336;2023-03-01T09:36:02;2.60;;;1.00;;
34296;SDS011;20564;42.902;25.336;2023-03-01T09:38:35;14.40;;;6.80;;
34296;SDS011;20564;42.902;25.336;2023-03-01T09:42:20;14.07;;;6.20;;
34296;SDS011;20564;42.902;25.336;2023-03-01T09:44:57;9.95;;;3.58;;
34296;SDS011;20564;42.902;25.336;2023-03-01T09:48:01;6.13;;;2.00;;
34296;SDS011;20564;42.902;25.336;2023-03-01T09:50:39;6.30;;;1.33;;
34296;SDS011;20564;42.902;25.336;2023-03-01T09:53:10;3.65;;;1.30;;
34296;SDS011;20564;42.902;25.336;2023-03-01T09:55:51;3.65;;;1.15;;
34296;SDS011;20564;42.902;25.336;2023-03-01T09:58:29;1.55;;;0.65;;
34296;SDS011;20564;42.902;25.336;2023-03-01T10:03:43;3.58;;;1.02;;
34296;SDS011;20564;42.902;25.336;2023-03-01T10:06:41;3.65;;;1.10;;
34296;SDS011;20564;42.902;25.336;2023-03-01T10:09:33;1.83;;;0.60;;
34296;SDS011;20564;42.902;25.336;2023-03-01T10:13:03;0.90;;;0.57;;
34296;SDS011;20564;42.902;25.336;2023-03-01T10:15:55;4.13;;;1.58;;
34296;SDS011;20564;42.902;25.336;2023-03-01T10:18:37;7.47;;;1.90;;
34296;SDS011;20564;42.902;25.336;2023-03-01T10:21:13;4.55;;;1.90;;
34296;SDS011;20564;42.902;25.336;2023-03-01T10:24:16;4.68;;;1.30;;
34296;SDS011;20564;42.902;25.336;2023-03-01T10:26:51;2.97;;;1.20;;
34296;SDS011;20564;42.902;25.336;2023-03-01T10:29:34;2.40;;;0.93;;
34296;SDS011;20564;42.902;25.336;2023-03-01T10:32:10;3.45;;;1.00;;
34296;SDS011;20564;42.902;25.336;2023-03-01T10:34:37;4.03;;;0.90;;
34296;SDS011;20564;42.902;25.336;2023-03-01T10:37:13;3.10;;;1.00;;
34296;SDS011;20564;42.902;25.336;2023-03-01T10:40:04;4.85;;;1.25;;
34296;SDS011;20564;42.902;25.336;2023-03-01T10:42:48;2.22;;;0.80;;
34296;SDS011;20564;42.902;25.336;2023-03-01T10:58:30;8.43;;;2.78;;
34296;SDS011;20564;42.902;25.336;2023-03-01T11:06:43;3.85;;;1.30;;
34296;SDS011;20564;42.902;25.336;2023-03-01T11:13:18;7.07;;;2.60;;
34296;SDS011;20564;42.902;25.336;2023-03-01T11:15:58;13.37;;;5.47;;
34296;SDS011;20564;42.902;25.336;2023-03-01T11:18:31;10.75;;;4.45;;
34296;SDS011;20564;42.902;25.336;2023-03-01T11:24:50;9.15;;;3.80;;
34296;SDS011;20564;42.902;25.336;2023-03-01T11:27:36;4.72;;;1.77;;
34296;SDS011;20564;42.902;25.336;2023-03-01T11:30:25;2.80;;;1.13;;
34296;SDS011;20564;42.902;25.336;2023-03-01T11:39:27;6.53;;;2.25;;
34296;SDS011;20564;42.902;25.336;2023-03-01T11:42:05;4.07;;;1.75;;
34296;SDS011;20564;42.902;25.336;2023-03-01T11:44:44;4.13;;;1.90;;
34296;SDS011;20564;42.902;25.336;2023-03-01T12:06:59;6.70;;;2.20;;
34296;SDS011;20564;42.902;25.336;2023-03-01T12:12:09;6.53;;;2.35;;
34296;SDS011;20564;42.902;25.336;2023-03-01T12:20:34;5.63;;;2.00;;
34296;SDS011;20564;42.902;25.336;2023-03-01T12:26:02;5.07;;;2.03;;
34296;SDS011;20564;42.902;25.336;2023-03-01T12:29:10;5.85;;;1.95;;
34296;SDS011;20564;42.902;25.336;2023-03-01T12:35:11;5.65;;;1.55;;
34296;SDS011;20564;42.902;25.336;2023-03-01T12:40:46;4.50;;;1.70;;
34296;SDS011;20564;42.902;25.336;2023-03-01T12:51:14;1.83;;;0.73;;
34296;SDS011;20564;42.902;25.336;2023-03-01T12:56:37;1.98;;;0.90;;
34296;SDS011;20564;42.902;25.336;2023-03-01T12:59:15;3.70;;;1.15;;
34296;SDS011;20564;42.902;25.336;2023-03-01T13:04:51;3.25;;;1.10;;
34296;SDS011;20564;42.902;25.336;2023-03-01T13:07:41;6.13;;;2.10;;
34296;SDS011;20564;42.902;25.336;2023-03-01T13:11:11;4.18;;;1.73;;
34296;SDS011;20564;42.902;25.336;2023-03-01T13:16:52;4.90;;;2.00;;
34296;SDS011;20564;42.902;25.336;2023-03-01T13:19:24;5.43;;;1.65;;
34296;SDS011;20564;42.902;25.336;2023-03-01T13:21:59;3.70;;;1.10;;
34296;SDS011;20564;42.902;25.336;2023-03-01T13:24:41;2.08;;;0.70;;
34296;SDS011;20564;42.902;25.336;2023-03-01T13:27:19;1.65;;;0.80;;
34296;SDS011;20564;42.902;25.336;2023-03-01T13:30:01;2.75;;;0.65;;
34296;SDS011;20564;42.902;25.336;2023-03-01T13:32:36;2.85;;;0.63;;
34296;SDS011;20564;42.902;25.336;2023-03-01T13:37:44;3.70;;;1.50;;
34296;SDS011;20564;42.902;25.336;2023-03-01T13:49:28;3.20;;;1.05;;
34296;SDS011;20564;42.902;25.336;2023-03-01T13:56:12;1.13;;;0.57;;
34296;SDS011;20564;42.902;25.336;2023-03-01T13:59:05;1.00;;;0.63;;
34296;SDS011;20564;42.902;25.336;2023-03-01T14:02:34;1.20;;;0.32;;
34296;SDS011;20564;42.902;25.336;2023-03-01T14:05:03;1.77;;;0.65;;
34296;SDS011;20564;42.902;25.336;2023-03-01T14:07:34;2.10;;;0.90;;
34296;SDS011;20564;42.902;25.336;2023-03-01T14:10:19;0.95;;;0.40;;
34296;SDS011;20564;42.902;25.336;2023-03-01T14:13:17;3.70;;;1.33;;
34296;SDS011;20564;42.902;25.336;2023-03-01T14:16:20;3.40;;;0.95;;
34296;SDS011;20564;42.902;25.336;2023-03-01T14:22:33;2.88;;;1.10;;
34296;SDS011;20564;42.902;25.336;2023-03-01T14:25:33;2.28;;;0.68;;
34296;SDS011;20564;42.902;25.336;2023-03-01T14:30:52;2.15;;;0.82;;
34296;SDS011;20564;42.902;25.336;2023-03-01T14:33:28;3.47;;;0.80;;
34296;SDS011;20564;42.902;25.336;2023-03-01T14:36:25;2.80;;;1.10;;
34296;SDS011;20564;42.902;25.336;2023-03-01T14:38:54;3.83;;;1.20;;
34296;SDS011;20564;42.902;25.336;2023-03-01T14:41:35;4.10;;;1.58;;
34296;SDS011;20564;42.902;25.336;2023-03-01T14:47:03;1.80;;;0.80;;
34296;SDS011;20564;42.902;25.336;2023-03-01T14:49:40;3.78;;;1.33;;
34296;SDS011;20564;42.902;25.336;2023-03-01T14:52:17;2.35;;;0.85;;
34296;SDS011;20564;42.902;25.336;2023-03-01T14:54:50;6.53;;;1.83;;
34296;SDS011;20564;42.902;25.336;2023-03-01T14:57:30;5.47;;;1.73;;
34296;SDS011;20564;42.902;25.336;2023-03-01T15:06:46;2.67;;;0.95;;
34296;SDS011;20564;42.902;25.336;2023-03-01T15:09:17;5.32;;;1.38;;
34296;SDS011;20564;42.902;25.336;2023-03-01T15:19:02;2.47;;;0.85;;
34296;SDS011;20564;42.902;25.336;2023-03-01T15:21:49;3.05;;;1.02;;
34296;SDS011;20564;42.902;25.336;2023-03-01T15:28:40;8.52;;;1.38;;
34296;SDS011;20564;42.902;25.336;2023-03-01T15:31:34;4.90;;;2.10;;
34296;SDS011;20564;42.902;25.336;2023-03-01T15:34:11;6.32;;;2.10;;
34296;SDS011;20564;42.902;25.336;2023-03-01T15:36:50;5.90;;;1.98;;
34296;SDS011;20564;42.902;25.336;2023-03-01T15:51:09;11.80;;;3.95;;
34296;SDS011;20564;42.902;25.336;2023-03-01T15:54:10;4.28;;;1.35;;
34296;SDS011;20564;42.902;25.336;2023-03-01T15:56:50;3.30;;;1.33;;
34296;SDS011;20564;42.902;25.336;2023-03-01T16:03:08;8.52;;;1.80;;
34296;SDS011;20564;42.902;25.336;2023-03-01T16:06:25;3.65;;;1.20;;
34296;SDS011;20564;42.902;25.336;2023-03-01T16:12:23;4.00;;;1.70;;
34296;SDS011;20564;42.902;25.336;2023-03-01T16:14:54;4.18;;;1.38;;
34296;SDS011;20564;42.902;25.336;2023-03-01T16:17:48;4.45;;;1.83;;
34296;SDS011;20564;42.902;25.336;2023-03-01T16:20:15;5.97;;;2.03;;
34296;SDS011;20564;42.902;25.336;2023-03-01T16:22:53;2.80;;;1.00;;
34296;SDS011;20564;42.902;25.336;2023-03-01T16:25:25;5.65;;;2.25;;
34296;SDS011;20564;42.902;25.336;2023-03-01T16:27:56;3.28;;;1.20;;
34296;SDS011;20564;42.902;25.336;2023-03-01T16:34:24;3.45;;;1.40;;
34296;SDS011;20564;42.902;25.336;2023-03-01T16:36:51;3.63;;;1.48;;
34296;SDS011;20564;42.902;25.336;2023-03-01T16:45:35;6.97;;;1.83;;
34296;SDS011;20564;42.902;25.336;2023-03-01T16:48:16;3.97;;;1.33;;
34296;SDS011;20564;42.902;25.336;2023-03-01T16:51:04;4.75;;;1.48;;
34296;SDS011;20564;42.902;25.336;2023-03-01T16:57:14;5.47;;;1.65;;
34296;SDS011;20564;42.902;25.336;2023-03-01T17:00:00;4.38;;;1.50;;
34296;SDS011;20564;42.902;25.336;2023-03-01T17:02:38;3.95;;;1.73;;
34296;SDS011;20564;42.902;25.336;2023-03-01T17:05:21;4.75;;;1.77;;
34296;SDS011;20564;42.902;25.336;2023-03-01T17:07:50;5.75;;;1.98;;
34296;SDS011;20564;42.902;25.336;2023-03-01T17:10:21;4.97;;;2.05;;
34296;SDS011;20564;42.902;25.336;2023-03-01T17:12:51;6.28;;;2.13;;
34296;SDS011;20564;42.902;25.336;2023-03-01T17:15:23;5.50;;;1.95;;
34296;SDS011;20564;42.902;25.336;2023-03-01T17:21:14;4.82;;;2.10;;
34296;SDS011;20564;42.902;25.336;2023-03-01T17:34:41;6.00;;;2.00;;
34296;SDS011;20564;42.902;25.336;2023-03-01T17:37:14;6.07;;;1.77;;
34296;SDS011;20564;42.902;25.336;2023-03-01T17:43:15;4.45;;;1.73;;
34296;SDS011;20564;42.902;25.336;2023-03-01T17:45:53;5.40;;;1.75;;
34296;SDS011;20564;42.902;25.336;2023-03-01T17:48:25;5.50;;;2.15;;
34296;SDS011;20564;42.902;25.336;2023-03-01T17:50:55;7.43;;;2.15;;
34296;SDS011;20564;42.902;25.336;2023-03-01T17:53:22;6.43;;;2.55;;
34296;SDS011;20564;42.902;25.336;2023-03-01T17:59:24;5.70;;;2.20;;
34296;SDS011;20564;42.902;25.336;2023-03-01T18:02:00;6.60;;;2.35;;
34296;SDS011;20564;42.902;25.336;2023-03-01T18:04:31;7.82;;;2.78;;
34296;SDS011;20564;42.902;25.336;2023-03-01T18:07:21;6.72;;;1.95;;
34296;SDS011;20564;42.902;25.336;2023-03-01T18:09:51;4.88;;;1.98;;
34296;SDS011;20564;42.902;25.336;2023-03-01T18:12:41;7.30;;;2.05;;
34296;SDS011;20564;42.902;25.336;2023-03-01T18:18:36;4.30;;;1.88;;
34296;SDS011;20564;42.902;25.336;2023-03-01T18:21:04;8.02;;;2.35;;
34296;SDS011;20564;42.902;25.336;2023-03-01T18:23:35;5.82;;;1.70;;
34296;SDS011;20564;42.902;25.336;2023-03-01T18:26:20;6.72;;;1.77;;
34296;SDS011;20564;42.902;25.336;2023-03-01T18:28:53;6.63;;;2.45;;
34296;SDS011;20564;42.902;25.336;2023-03-01T18:31:29;6.68;;;2.25;;
34296;SDS011;20564;42.902;25.336;2023-03-01T18:33:59;5.47;;;1.80;;
34296;SDS011;20564;42.902;25.336;2023-03-01T18:36:32;6.43;;;1.95;;
34296;SDS011;20564;42.902;25.336;2023-03-01T18:39:02;7.80;;;2.33;;
34296;SDS011;20564;42.902;25.336;2023-03-01T18:44:58;7.05;;;2.92;;
34296;SDS011;20564;42.902;25.336;2023-03-01T18:47:37;10.30;;;3.15;;
34296;SDS011;20564;42.902;25.336;2023-03-01T18:50:08;8.77;;;2.78;;
34296;SDS011;20564;42.902;25.336;2023-03-01T18:52:47;5.85;;;2.75;;
34296;SDS011;20564;42.902;25.336;2023-03-01T18:55:28;6.30;;;2.10;;
34296;SDS011;20564;42.902;25.336;2023-03-01T18:58:02;7.35;;;2.63;;
34296;SDS011;20564;42.902;25.336;2023-03-01T19:00:56;8.85;;;2.75;;
34296;SDS011;20564;42.902;25.336;2023-03-01T19:03:40;6.45;;;2.13;;
34296;SDS011;20564;42.902;25.336;2023-03-01T19:06:14;5.78;;;1.80;;
34296;SDS011;20564;42.902;25.336;2023-03-01T19:08:47;8.80;;;3.13;;
34296;SDS011;20564;42.902;25.336;2023-03-01T19:11:16;6.10;;;2.35;;
34296;SDS011;20564;42.902;25.336;2023-03-01T19:13:59;7.25;;;2.53;;
34296;SDS011;20564;42.902;25.336;2023-03-01T19:16:30;7.45;;;2.90;;